Time;durP1;ratioP1;P1;durP2;ratioP2;P2;SDS_P1;SDS_P2;PMS_P1;PMS_P2;Temp;Humidity;BMP_temperature;BMP_pressure;BME280_temperature;BME280_humidity;BME280_pressure;Samples;Min_cycle;Max_cycle;Signal;HPM_P1;HPM_P2
2023/07/20 00:01:55;;;;;;;;;;;33.40;56.20;;;;;;5114070;28;19984;-82
2023/07/20 00:04:20;;;;;;;;;;;33.40;56.20;;;;;;5060631;28;1532334;-81
2023/07/20 00:06:46;;;;;;;;;;;33.40;56.30;;;;;;5115842;28;19907;-80
2023/07/20 00:09:12;;;;;;;;;;;33.40;56.50;;;;;;5115226;28;20356;-82
2023/07/20 00:11:38;;;;;;;;;;;33.30;56.60;;;;;;5115695;28;19911;-81
2023/07/20 00:14:05;;;;;;;;;;;33.30;56.50;;;;;;5115201;28;20368;-81
2023/07/20 00:16:30;;;;;;;;;;;33.20;56.50;;;;;;5115231;28;19965;-81
2023/07/20 00:18:56;;;;;;;;;;;33.20;56.70;;;;;;5115320;28;19904;-80
2023/07/20 00:21:22;;;;;;;;;;;33.10;57.00;;;;;;5114407;28;19923;-82
2023/07/20 00:23:48;;;;;;;;;;;33.00;57.10;;;;;;5115495;28;20362;-81
2023/07/20 00:26:13;;;;;;;;;;;33.10;57.10;;;;;;5114923;28;19911;-81
2023/07/20 00:28:39;;;;;;;;;;;33.10;57.00;;;;;;5115388;28;19903;-82
2023/07/20 00:31:05;;;;;;;;;;;33.10;56.90;;;;;;5114655;28;20276;-81
2023/07/20 00:33:31;;;;;;;;;;;33.10;56.70;;;;;;5115084;28;20020;-81
2023/07/20 00:35:57;;;;;;;;;;;33.10;56.60;;;;;;5096837;28;20366;-81
2023/07/20 00:38:22;;;;;;;;;;;33.10;56.70;;;;;;5114610;28;19960;-81
2023/07/20 00:40:49;;;;;;;;;;;33.10;56.60;;;;;;5114480;28;19918;-81
2023/07/20 00:43:15;;;;;;;;;;;33.10;56.80;;;;;;5114482;28;20355;-81
2023/07/20 00:45:41;;;;;;;;;;;33.00;56.80;;;;;;5114921;28;19904;-81
2023/07/20 00:48:08;;;;;;;;;;;33.00;56.90;;;;;;5114672;28;20044;-81
2023/07/20 00:50:34;;;;;;;;;;;33.00;57.00;;;;;;5096306;28;19904;-81
2023/07/20 00:53:00;;;;;;;;;;;33.10;57.10;;;;;;5096368;28;19907;-80
2023/07/20 00:55:26;;;;;;;;;;;33.10;57.20;;;;;;5115193;28;19998;-81
2023/07/20 00:57:52;;;;;;;;;;;33.10;57.20;;;;;;5096143;28;20342;-82
2023/07/20 01:00:19;;;;;;;;;;;33.20;57.20;;;;;;5114768;28;19908;-81
2023/07/20 01:02:46;;;;;;;;;;;33.20;57.20;;;;;;5114055;28;19977;-80
2023/07/20 01:05:13;;;;;;;;;;;33.10;57.20;;;;;;5095968;28;19920;-82
2023/07/20 01:07:43;;;;;;;;;;;33.10;57.20;;;;;;5114276;28;20271;-82
2023/07/20 01:10:15;;;;;;;;;;;33.10;57.40;;;;;;5114550;28;19908;-82
2023/07/20 01:12:42;;;;;;;;;;;33.10;57.40;;;;;;5114345;28;19904;-81
2023/07/20 01:15:08;;;;;;;;;;;33.00;57.40;;;;;;5113939;28;19904;-82
2023/07/20 01:17:35;;;;;;;;;;;32.90;57.50;;;;;;5095754;28;20416;-82
2023/07/20 01:20:01;;;;;;;;;;;32.90;57.50;;;;;;5114025;28;20224;-83
2023/07/20 01:22:44;;;;;;;;;;;32.80;57.40;;;;;;5095783;28;19915;-82
2023/07/20 01:25:24;;;;;;;;;;;32.80;57.60;;;;;;5095847;28;20367;-83
2023/07/20 01:28:01;;;;;;;;;;;32.80;57.40;;;;;;5095714;28;19904;-82
2023/07/20 01:30:39;;;;;;;;;;;32.90;57.20;;;;;;5095594;28;20313;-82
2023/07/20 01:33:06;;;;;;;;;;;32.90;57.00;;;;;;5113831;28;19910;-82
2023/07/20 01:35:32;;;;;;;;;;;33.00;56.90;;;;;;5095585;28;20003;-83
2023/07/20 01:37:58;;;;;;;;;;;32.90;56.80;;;;;;5114403;28;19957;-82
2023/07/20 01:40:25;;;;;;;;;;;33.00;56.50;;;;;;5113916;28;19907;-83
2023/07/20 01:42:51;;;;;;;;;;;33.00;56.70;;;;;;5114036;28;20247;-82
2023/07/20 01:45:17;;;;;;;;;;;32.90;56.60;;;;;;5113523;28;19957;-82
2023/07/20 01:47:43;;;;;;;;;;;32.90;56.70;;;;;;5095780;28;20327;-81
2023/07/20 01:50:09;;;;;;;;;;;32.90;56.40;;;;;;5095656;28;19903;-81
2023/07/20 01:52:35;;;;;;;;;;;33.00;56.40;;;;;;5113611;28;19904;-81
2023/07/20 01:55:01;;;;;;;;;;;33.00;56.20;;;;;;5095221;28;20241;-81
2023/07/20 01:57:26;;;;;;;;;;;33.10;56.10;;;;;;5113844;28;20480;-81
2023/07/20 01:59:52;;;;;;;;;;;33.10;56.10;;;;;;5113495;28;19964;-82
2023/07/20 02:02:18;;;;;;;;;;;33.20;55.90;;;;;;5113665;28;19915;-81
2023/07/20 02:04:44;;;;;;;;;;;33.10;56.20;;;;;;5113409;28;19915;-81
2023/07/20 02:07:10;;;;;;;;;;;32.90;56.50;;;;;;5113554;28;19910;-82
2023/07/20 02:09:36;;;;;;;;;;;32.80;56.50;;;;;;5095304;28;19949;-81
2023/07/20 02:12:02;;;;;;;;;;;32.80;56.70;;;;;;5114273;28;19903;-82
2023/07/20 02:14:28;;;;;;;;;;;32.70;56.90;;;;;;5113712;28;20240;-83
2023/07/20 02:16:57;;;;;;;;;;;32.60;57.00;;;;;;5095153;28;19962;-82
2023/07/20 02:19:25;;;;;;;;;;;32.50;57.30;;;;;;5113434;28;19958;-82
2023/07/20 02:21:50;;;;;;;;;;;32.40;57.40;;;;;;5113280;28;19970;-83
2023/07/20 02:24:16;;;;;;;;;;;32.30;57.50;;;;;;5113452;28;19925;-82
2023/07/20 02:26:42;;;;;;;;;;;32.20;57.60;;;;;;5113846;28;19904;-83
2023/07/20 02:29:08;;;;;;;;;;;32.20;57.80;;;;;;5113606;28;19904;-83
2023/07/20 02:31:34;;;;;;;;;;;32.20;57.80;;;;;;5113148;28;19911;-82
2023/07/20 02:33:59;;;;;;;;;;;32.20;57.90;;;;;;5113833;28;19903;-82
2023/07/20 02:36:25;;;;;;;;;;;32.20;57.80;;;;;;5113602;28;20319;-83
2023/07/20 02:38:51;;;;;;;;;;;32.20;57.60;;;;;;5095078;28;20374;-82
2023/07/20 02:41:17;;;;;;;;;;;32.20;57.50;;;;;;5112879;28;19918;-81
2023/07/20 02:43:43;;;;;;;;;;;32.40;57.10;;;;;;5113572;28;19907;-82
2023/07/20 02:46:09;;;;;;;;;;;32.50;57.00;;;;;;5116821;28;19910;-82
2023/07/20 02:48:35;;;;;;;;;;;32.50;56.90;;;;;;5116841;28;20244;-81
2023/07/20 02:51:00;;;;;;;;;;;32.40;57.00;;;;;;5116775;28;19908;-81
2023/07/20 02:53:26;;;;;;;;;;;32.40;57.10;;;;;;5116859;28;19904;-80
2023/07/20 02:55:52;;;;;;;;;;;32.30;57.20;;;;;;5117311;28;20419;-81
2023/07/20 02:58:18;;;;;;;;;;;32.20;57.30;;;;;;5116728;28;19910;-81
2023/07/20 03:00:44;;;;;;;;;;;32.20;57.50;;;;;;5116872;28;19957;-81
2023/07/20 03:03:09;;;;;;;;;;;32.20;57.50;;;;;;5132296;27;19912;-82
2023/07/20 03:05:37;;;;;;;;;;;32.10;57.60;;;;;;5117075;28;20006;-81
2023/07/20 03:08:06;;;;;;;;;;;32.10;57.60;;;;;;5116406;28;19908;-81
2023/07/20 03:10:32;;;;;;;;;;;32.00;57.50;;;;;;5117005;28;19958;-81
2023/07/20 03:12:58;;;;;;;;;;;32.00;57.70;;;;;;5116430;28;19910;-82
2023/07/20 03:15:24;;;;;;;;;;;31.90;57.60;;;;;;5116347;28;19915;-80
2023/07/20 03:17:51;;;;;;;;;;;31.80;57.90;;;;;;5116596;28;20411;-81
2023/07/20 03:20:17;;;;;;;;;;;31.80;58.00;;;;;;5116164;28;19908;-81
2023/07/20 03:22:43;;;;;;;;;;;31.70;58.00;;;;;;5097858;28;19918;-82
2023/07/20 03:25:09;;;;;;;;;;;31.60;58.00;;;;;;5116103;28;19904;-82
2023/07/20 03:27:34;;;;;;;;;;;31.60;58.10;;;;;;5116055;28;20004;-82
2023/07/20 03:30:00;;;;;;;;;;;31.70;58.10;;;;;;5116674;28;19903;-81
2023/07/20 03:32:26;;;;;;;;;;;31.70;58.00;;;;;;5115955;28;19904;-81
2023/07/20 03:34:52;;;;;;;;;;;31.80;57.90;;;;;;5115988;28;19904;-81
2023/07/20 03:37:18;;;;;;;;;;;31.80;57.80;;;;;;5116504;28;19903;-80
2023/07/20 03:39:43;;;;;;;;;;;31.90;57.60;;;;;;5116169;28;19907;-81
2023/07/20 03:42:09;;;;;;;;;;;32.00;57.40;;;;;;5115874;28;19919;-82
2023/07/20 03:44:35;;;;;;;;;;;32.00;57.40;;;;;;5097599;28;20002;-83
2023/07/20 03:47:01;;;;;;;;;;;32.00;57.40;;;;;;5115696;28;20310;-82
2023/07/20 03:49:27;;;;;;;;;;;32.10;57.40;;;;;;5115844;28;19911;-83
2023/07/20 03:51:53;;;;;;;;;;;32.00;57.60;;;;;;5115823;28;19907;-82
2023/07/20 03:54:18;;;;;;;;;;;31.80;57.80;;;;;;5115669;28;19904;-82
2023/07/20 03:56:44;;;;;;;;;;;31.80;58.00;;;;;;5114795;28;19965;-82
2023/07/20 03:59:10;;;;;;;;;;;31.80;57.60;;;;;;5115528;28;19903;-82
2023/07/20 04:01:39;;;;;;;;;;;31.90;57.50;;;;;;5115355;28;19918;-82
2023/07/20 04:04:08;;;;;;;;;;;31.90;57.50;;;;;;5093522;28;19916;-81
2023/07/20 04:06:34;;;;;;;;;;;32.00;57.30;;;;;;5095093;28;19904;-82
2023/07/20 04:09:00;;;;;;;;;;;32.00;57.10;;;;;;5094964;28;19912;-82
2023/07/20 04:11:26;;;;;;;;;;;32.10;57.20;;;;;;5094816;28;19904;-82
2023/07/20 04:13:52;;;;;;;;;;;32.00;57.40;;;;;;5094870;28;19904;-82
2023/07/20 04:16:19;;;;;;;;;;;31.80;57.50;;;;;;5094651;28;19909;-82
2023/07/20 04:18:45;;;;;;;;;;;31.80;57.80;;;;;;5093339;28;19911;-82
2023/07/20 04:21:11;;;;;;;;;;;31.80;57.90;;;;;;5094447;28;20318;-82
2023/07/20 04:23:37;;;;;;;;;;;31.70;57.80;;;;;;5095040;28;19911;-81
2023/07/20 04:26:02;;;;;;;;;;;31.60;57.80;;;;;;5094636;28;19904;-82
2023/07/20 04:28:28;;;;;;;;;;;31.60;57.80;;;;;;5095006;28;20403;-81
2023/07/20 04:30:54;;;;;;;;;;;31.60;57.60;;;;;;5094707;28;19999;-82
2023/07/20 04:33:20;;;;;;;;;;;31.60;57.60;;;;;;5094678;28;19944;-81
2023/07/20 04:35:47;;;;;;;;;;;31.60;57.60;;;;;;5095095;28;19904;-81
2023/07/20 04:38:15;;;;;;;;;;;31.60;57.40;;;;;;5094774;28;19908;-82
2023/07/20 04:40:42;;;;;;;;;;;31.70;57.40;;;;;;5094613;28;20304;-82
2023/07/20 04:43:07;;;;;;;;;;;31.70;57.30;;;;;;5094295;28;19904;-81
2023/07/20 04:45:33;;;;;;;;;;;31.80;56.20;;;;;;5094517;28;20006;-81
2023/07/20 04:47:59;;;;;;;;;;;32.00;56.80;;;;;;5092961;28;19904;-81
2023/07/20 04:50:25;;;;;;;;;;;32.00;56.70;;;;;;5094876;28;20335;-82
2023/07/20 04:52:51;;;;;;;;;;;32.00;56.70;;;;;;5094187;28;19911;-82
2023/07/20 04:55:17;;;;;;;;;;;32.00;56.70;;;;;;5094437;28;19912;-82
2023/07/20 04:57:42;;;;;;;;;;;32.00;56.50;;;;;;5094198;28;20355;-81
2023/07/20 05:00:11;;;;;;;;;;;32.00;56.20;;;;;;5094544;28;19911;-82
2023/07/20 05:02:37;;;;;;;;;;;32.00;56.50;;;;;;5093973;28;19948;-83
2023/07/20 05:05:05;;;;;;;;;;;31.90;56.60;;;;;;5114002;28;19929;-83
2023/07/20 05:07:31;;;;;;;;;;;32.00;56.40;;;;;;5114490;28;20267;-83
2023/07/20 05:09:57;;;;;;;;;;;32.10;56.10;;;;;;5114260;28;19903;-81
2023/07/20 05:12:23;;;;;;;;;;;32.30;56.10;;;;;;5114283;28;19999;-81
2023/07/20 05:14:49;;;;;;;;;;;32.90;55.50;;;;;;5114749;28;20347;-81
2023/07/20 05:17:15;;;;;;;;;;;33.60;54.80;;;;;;5114122;28;19910;-82
2023/07/20 05:19:41;;;;;;;;;;;34.30;54.40;;;;;;5114202;28;19904;-82
2023/07/20 05:22:06;;;;;;;;;;;34.90;53.60;;;;;;5113846;28;19915;-82
2023/07/20 05:24:32;;;;;;;;;;;35.30;53.00;;;;;;5114113;28;19915;-82
2023/07/20 05:26:58;;;;;;;;;;;35.70;52.60;;;;;;5113779;28;19904;-82
2023/07/20 05:29:25;;;;;;;;;;;35.90;52.20;;;;;;5113960;28;19907;-82
2023/07/20 05:31:51;;;;;;;;;;;35.50;52.30;;;;;;5113631;28;19925;-81
2023/07/20 05:34:16;;;;;;;;;;;35.70;52.50;;;;;;5113792;28;19990;-81
2023/07/20 05:36:42;;;;;;;;;;;36.00;52.10;;;;;;5113717;28;19927;-81
2023/07/20 05:39:08;;;;;;;;;;;36.70;51.50;;;;;;5113630;28;19911;-81
2023/07/20 05:41:34;;;;;;;;;;;37.20;50.60;;;;;;5113422;28;19922;-80
2023/07/20 05:44:00;;;;;;;;;;;37.00;50.40;;;;;;5113507;28;19903;-81
2023/07/20 05:46:26;;;;;;;;;;;36.70;50.70;;;;;;5113529;28;19908;-80
2023/07/20 05:48:52;;;;;;;;;;;36.80;50.90;;;;;;5095166;28;19904;-82
2023/07/20 05:51:17;;;;;;;;;;;36.60;50.70;;;;;;5113223;28;20010;-82
2023/07/20 05:53:43;;;;;;;;;;;37.60;50.50;;;;;;5113397;28;19976;-81
2023/07/20 05:56:11;;;;;;;;;;;38.30;49.50;;;;;;5113946;28;19910;-80
2023/07/20 05:58:37;;;;;;;;;;;38.80;49.00;;;;;;5113223;28;20386;-81
2023/07/20 06:01:05;;;;;;;;;;;39.20;48.70;;;;;;5113512;28;19915;-82
2023/07/20 06:03:31;;;;;;;;;;;40.00;48.30;;;;;;5113034;28;20272;-82
2023/07/20 06:06:00;;;;;;;;;;;40.50;47.80;;;;;;5113308;28;19903;-81
2023/07/20 06:08:27;;;;;;;;;;;39.60;47.80;;;;;;5113216;28;19926;-83
2023/07/20 06:10:52;;;;;;;;;;;39.10;49.00;;;;;;5113194;28;19949;-83
2023/07/20 06:13:18;;;;;;;;;;;39.50;48.50;;;;;;5113316;28;19904;-82
2023/07/20 06:15:44;;;;;;;;;;;39.90;48.50;;;;;;5112954;28;19939;-81
2023/07/20 06:18:10;;;;;;;;;;;39.30;48.00;;;;;;5113242;28;19904;-81
2023/07/20 06:20:36;;;;;;;;;;;39.10;49.00;;;;;;5116152;28;20374;-82
2023/07/20 06:23:01;;;;;;;;;;;39.30;47.80;;;;;;5098579;28;19915;-81
2023/07/20 06:25:27;;;;;;;;;;;39.00;48.30;;;;;;5116986;28;19910;-81
2023/07/20 06:27:55;;;;;;;;;;;39.50;48.00;;;;;;5117024;28;20390;-81
2023/07/20 06:30:21;;;;;;;;;;;40.20;47.60;;;;;;5117179;28;19903;-82
2023/07/20 06:32:47;;;;;;;;;;;40.30;47.10;;;;;;5116872;28;20451;-82
2023/07/20 06:35:13;;;;;;;;;;;40.70;46.40;;;;;;5116923;28;20232;-81
2023/07/20 06:37:39;;;;;;;;;;;40.50;46.70;;;;;;5117011;28;19990;-81
2023/07/20 06:40:05;;;;;;;;;;;40.40;46.80;;;;;;5116628;28;19947;-82
2023/07/20 06:42:31;;;;;;;;;;;40.80;46.30;;;;;;5116777;28;19903;-82
2023/07/20 06:44:57;;;;;;;;;;;41.20;45.80;;;;;;5117081;28;19911;-82
2023/07/20 06:47:23;;;;;;;;;;;41.00;44.90;;;;;;5116708;28;19903;-81
2023/07/20 06:49:49;;;;;;;;;;;40.40;45.00;;;;;;5099332;28;19910;-83
2023/07/20 06:52:18;;;;;;;;;;;40.70;44.90;;;;;;5116998;28;19932;-81
2023/07/20 06:54:43;;;;;;;;;;;41.60;44.40;;;;;;5098729;28;19918;-82
2023/07/20 06:57:15;;;;;;;;;;;42.10;44.40;;;;;;5116960;28;19907;-80
2023/07/20 06:59:41;;;;;;;;;;;42.80;43.60;;;;;;5098875;28;19908;-82
2023/07/20 07:02:08;;;;;;;;;;;43.40;43.10;;;;;;5098228;28;19912;-82
2023/07/20 07:04:34;;;;;;;;;;;44.30;42.40;;;;;;5116769;28;19919;-83
2023/07/20 07:07:00;;;;;;;;;;;44.80;41.80;;;;;;5098316;28;19947;-84
2023/07/20 07:09:26;;;;;;;;;;;44.40;41.60;;;;;;5117476;28;19904;-82
2023/07/20 07:11:53;;;;;;;;;;;44.70;41.60;;;;;;5117051;28;19904;-83
2023/07/20 07:14:20;;;;;;;;;;;44.60;41.80;;;;;;5117008;28;19910;-83
2023/07/20 07:16:46;;;;;;;;;;;44.80;41.60;;;;;;5116214;28;19911;-82
2023/07/20 07:19:11;;;;;;;;;;;45.20;40.40;;;;;;5116749;28;19903;-83
2023/07/20 07:21:37;;;;;;;;;;;45.40;40.70;;;;;;5116457;28;19935;-83
2023/07/20 07:24:03;;;;;;;;;;;46.90;40.60;;;;;;5116460;28;20299;-82
2023/07/20 07:26:29;;;;;;;;;;;47.50;41.40;;;;;;5098541;28;19928;-83
2023/07/20 07:28:55;;;;;;;;;;;47.30;42.90;;;;;;5097650;28;20124;-82
2023/07/20 07:31:21;;;;;;;;;;;47.30;43.60;;;;;;5097569;28;20473;-82
2023/07/20 07:33:47;;;;;;;;;;;46.50;43.60;;;;;;5097862;28;19904;-82
2023/07/20 07:36:13;;;;;;;;;;;46.40;43.70;;;;;;5097923;28;19951;-83
2023/07/20 07:38:39;;;;;;;;;;;45.90;43.00;;;;;;5116339;28;19903;-82
2023/07/20 07:41:05;;;;;;;;;;;45.50;44.20;;;;;;5097723;28;20016;-83
2023/07/20 07:43:30;;;;;;;;;;;45.30;48.00;;;;;;5116265;28;19904;-84
2023/07/20 07:45:57;;;;;;;;;;;44.40;52.30;;;;;;5115824;28;19968;-83
2023/07/20 07:48:25;;;;;;;;;;;44.00;52.90;;;;;;5097767;28;19904;-83
2023/07/20 07:50:51;;;;;;;;;;;43.30;54.20;;;;;;5097444;28;20316;-81
2023/07/20 07:53:16;;;;;;;;;;;43.00;54.30;;;;;;5116249;28;19904;-82
2023/07/20 07:55:42;;;;;;;;;;;43.00;54.30;;;;;;5097967;28;19904;-82
2023/07/20 07:58:11;;;;;;;;;;;43.40;53.30;;;;;;5098474;28;19907;-82
2023/07/20 08:00:37;;;;;;;;;;;43.60;52.90;;;;;;5117091;28;19911;-83
2023/07/20 08:03:03;;;;;;;;;;;43.80;53.60;;;;;;5098036;28;20037;-82
2023/07/20 08:05:29;;;;;;;;;;;43.70;54.60;;;;;;5116386;28;19911;-83
2023/07/20 08:07:54;;;;;;;;;;;43.50;55.50;;;;;;5097573;28;19911;-82
2023/07/20 08:10:20;;;;;;;;;;;43.10;55.80;;;;;;5097966;28;19912;-83
2023/07/20 08:12:46;;;;;;;;;;;42.90;56.00;;;;;;5115540;28;19951;-83
2023/07/20 08:15:14;;;;;;;;;;;42.50;56.20;;;;;;5097367;28;19915;-82
2023/07/20 08:17:41;;;;;;;;;;;42.90;56.70;;;;;;5097304;28;19904;-82
2023/07/20 08:20:09;;;;;;;;;;;43.30;57.10;;;;;;5097086;28;19907;-82
2023/07/20 08:22:35;;;;;;;;;;;42.50;56.90;;;;;;5096979;28;19907;-84
2023/07/20 08:25:01;;;;;;;;;;;42.70;56.70;;;;;;5115914;28;19904;-83
2023/07/20 08:27:27;;;;;;;;;;;42.70;56.00;;;;;;5096929;28;20360;-84
2023/07/20 08:29:53;;;;;;;;;;;42.90;55.40;;;;;;5115552;28;19948;-83
2023/07/20 08:32:19;;;;;;;;;;;42.90;55.00;;;;;;5097086;28;19903;-83
2023/07/20 08:34:45;;;;;;;;;;;42.90;55.10;;;;;;5097069;28;20378;-82
2023/07/20 08:37:11;;;;;;;;;;;42.80;54.50;;;;;;5115801;28;19910;-83
2023/07/20 08:39:37;;;;;;;;;;;42.70;54.70;;;;;;5115373;28;19904;-81
2023/07/20 08:42:06;;;;;;;;;;;42.60;54.30;;;;;;5114448;28;19918;-82
2023/07/20 08:44:32;;;;;;;;;;;42.20;53.20;;;;;;5097273;28;19910;-83
2023/07/20 08:47:00;;;;;;;;;;;42.30;52.90;;;;;;5096475;28;19903;-82
2023/07/20 08:49:26;;;;;;;;;;;41.80;53.00;;;;;;5096617;28;19956;-86
2023/07/20 08:51:52;;;;;;;;;;;41.70;53.00;;;;;;5096470;28;20313;-82
2023/07/20 08:54:18;;;;;;;;;;;41.70;53.10;;;;;;5096275;28;19903;-81
2023/07/20 08:56:45;;;;;;;;;;;42.10;52.50;;;;;;5096306;28;19930;-80
2023/07/20 08:59:12;;;;;;;;;;;42.10;50.90;;;;;;5096661;28;19999;-82
2023/07/20 09:01:39;;;;;;;;;;;42.10;50.10;;;;;;5096129;28;19912;-82
2023/07/20 09:04:05;;;;;;;;;;;41.90;49.20;;;;;;5114693;28;19923;-83
2023/07/20 09:06:31;;;;;;;;;;;41.90;48.20;;;;;;5115154;28;19904;-83
2023/07/20 09:08:57;;;;;;;;;;;42.30;46.30;;;;;;5096059;28;19903;-81
2023/07/20 09:11:23;;;;;;;;;;;42.20;44.20;;;;;;5114752;28;20399;-83
2023/07/20 09:14:02;;;;;;;;;;;42.40;44.90;;;;;;5114565;28;19965;-82
2023/07/20 09:16:29;;;;;;;;;;;42.10;44.60;;;;;;5079138;28;19903;-82
2023/07/20 09:18:57;;;;;;;;;;;42.40;44.40;;;;;;5114338;28;20352;-82
2023/07/20 09:21:23;;;;;;;;;;;42.50;44.40;;;;;;5114362;28;20014;-84
2023/07/20 09:23:53;;;;;;;;;;;42.60;45.00;;;;;;5114307;28;20020;-83
2023/07/20 09:26:19;;;;;;;;;;;42.60;45.50;;;;;;5114490;28;19903;-82
2023/07/20 09:28:51;;;;;;;;;;;42.30;45.80;;;;;;5114621;28;19986;-82
2023/07/20 09:31:18;;;;;;;;;;;42.40;44.10;;;;;;5095846;28;19914;-83
2023/07/20 09:33:45;;;;;;;;;;;42.10;44.40;;;;;;5079042;28;20002;-82
2023/07/20 09:36:11;;;;;;;;;;;42.40;44.40;;;;;;5114154;28;19946;-85
2023/07/20 09:38:37;;;;;;;;;;;42.10;43.10;;;;;;5113929;28;19904;-82
2023/07/20 09:41:06;;;;;;;;;;;42.10;42.20;;;;;;5114002;28;20344;-82
2023/07/20 09:43:32;;;;;;;;;;;41.90;41.60;;;;;;5113493;28;20256;-81
2023/07/20 09:45:58;;;;;;;;;;;41.80;42.20;;;;;;5113755;28;19903;-81
2023/07/20 09:48:25;;;;;;;;;;;42.00;43.20;;;;;;5114054;28;19908;-83
2023/07/20 09:50:51;;;;;;;;;;;42.20;43.30;;;;;;5095822;28;20390;-83
2023/07/20 09:53:28;;;;;;;;;;;42.10;44.10;;;;;;5114939;28;19904;-83
2023/07/20 09:55:59;;;;;;;;;;;41.70;43.50;;;;;;5119237;28;19907;-82
2023/07/20 09:58:29;;;;;;;;;;;41.60;44.60;;;;;;5118287;28;19950;-84
2023/07/20 10:00:57;;;;;;;;;;;41.70;45.40;;;;;;5099736;28;20390;-82
2023/07/20 10:03:25;;;;;;;;;;;41.80;45.40;;;;;;5117810;28;19925;-83
2023/07/20 10:06:00;;;;;;;;;;;41.70;45.30;;;;;;5118309;28;19908;-83
2023/07/20 10:08:26;;;;;;;;;;;41.60;47.00;;;;;;5100026;28;20007;-83
2023/07/20 10:10:52;;;;;;;;;;;41.50;48.10;;;;;;5118207;28;19904;-83
2023/07/20 10:13:20;;;;;;;;;;;41.60;48.80;;;;;;5118008;28;20053;-83
2023/07/20 10:15:57;;;;;;;;;;;41.60;49.10;;;;;;5117821;28;19911;-81
2023/07/20 10:18:28;;;;;;;;;;;41.30;49.70;;;;;;5117479;28;19995;-81
2023/07/20 10:20:55;;;;;;;;;;;41.50;50.80;;;;;;5117684;28;19911;-81
2023/07/20 10:23:22;;;;;;;;;;;41.70;51.90;;;;;;5117455;28;19908;-81
2023/07/20 10:25:48;;;;;;;;;;;41.50;48.70;;;;;;5117442;28;19904;-82
2023/07/20 10:28:14;;;;;;;;;;;41.10;48.20;;;;;;5117453;28;20335;-81
2023/07/20 10:30:40;;;;;;;;;;;41.20;48.60;;;;;;5098866;28;20369;-82
2023/07/20 10:33:06;;;;;;;;;;;41.30;46.00;;;;;;5117059;28;19986;-82
2023/07/20 10:35:50;;;;;;;;;;;41.20;47.00;;;;;;5117704;28;20010;-82
2023/07/20 10:38:16;;;;;;;;;;;41.20;48.70;;;;;;5117230;28;19904;-82
2023/07/20 10:40:42;;;;;;;;;;;41.10;47.40;;;;;;5117030;28;19952;-83
2023/07/20 10:43:10;;;;;;;;;;;40.70;48.20;;;;;;5117465;28;20351;-82
2023/07/20 10:45:36;;;;;;;;;;;40.80;48.40;;;;;;5117341;28;19904;-83
2023/07/20 10:48:06;;;;;;;;;;;40.50;47.60;;;;;;5098570;28;19947;-82
2023/07/20 10:50:33;;;;;;;;;;;40.50;45.80;;;;;;5116939;28;19951;-81
2023/07/20 10:53:15;;;;;;;;;;;40.60;48.10;;;;;;5116666;28;19911;-81
2023/07/20 10:55:42;;;;;;;;;;;40.50;48.40;;;;;;5098306;28;19904;-82
2023/07/20 10:58:09;;;;;;;;;;;40.50;45.90;;;;;;5116722;28;19908;-82
2023/07/20 11:00:35;;;;;;;;;;;40.50;48.20;;;;;;5116397;28;20010;-82
2023/07/20 11:03:02;;;;;;;;;;;40.60;49.10;;;;;;5116243;28;19914;-82
2023/07/20 11:05:37;;;;;;;;;;;41.00;49.30;;;;;;5116501;28;20002;-82
2023/07/20 11:08:04;;;;;;;;;;;41.20;47.60;;;;;;5116638;28;19911;-82
2023/07/20 11:10:30;;;;;;;;;;;41.50;42.50;;;;;;5116575;28;20363;-82
2023/07/20 11:13:14;;;;;;;;;;;41.80;40.60;;;;;;5116945;28;19918;-82
2023/07/20 11:15:47;;;;;;;;;;;41.80;39.60;;;;;;5116484;28;19903;-82
2023/07/20 11:18:13;;;;;;;;;;;42.10;38.10;;;;;;5116063;28;19904;-83
2023/07/20 11:20:39;;;;;;;;;;;42.10;38.00;;;;;;5116710;28;19951;-82
2023/07/20 11:23:05;;;;;;;;;;;42.20;37.50;;;;;;5097727;28;20399;-82
2023/07/20 11:25:40;;;;;;;;;;;42.20;36.60;;;;;;5097746;28;19904;-82
2023/07/20 11:28:10;;;;;;;;;;;42.30;36.90;;;;;;5115924;28;19995;-82
2023/07/20 11:30:37;;;;;;;;;;;42.30;36.70;;;;;;5116091;28;20371;-83
2023/07/20 11:33:03;;;;;;;;;;;42.40;35.40;;;;;;5116136;28;19998;-82
2023/07/20 11:35:29;;;;;;;;;;;42.60;35.10;;;;;;5116396;28;20256;-82
2023/07/20 11:37:55;;;;;;;;;;;42.70;35.40;;;;;;5115549;28;19915;-82
2023/07/20 11:40:22;;;;;;;;;;;42.70;35.20;;;;;;5115627;28;19968;-82
2023/07/20 11:42:50;;;;;;;;;;;42.80;35.50;;;;;;5115633;28;19935;-82
2023/07/20 11:45:19;;;;;;;;;;;43.00;35.60;;;;;;5116470;28;19908;-82
2023/07/20 11:47:45;;;;;;;;;;;43.10;36.10;;;;;;5115786;28;19925;-81
2023/07/20 11:50:13;;;;;;;;;;;43.00;36.20;;;;;;5097012;28;20011;-81
2023/07/20 11:52:40;;;;;;;;;;;42.70;36.40;;;;;;5115305;28;19927;-81
2023/07/20 11:55:07;;;;;;;;;;;42.70;36.40;;;;;;5115635;28;19949;-81
2023/07/20 11:57:32;;;;;;;;;;;42.90;36.80;;;;;;5097311;28;19904;-81
2023/07/20 12:00:01;;;;;;;;;;;42.90;36.00;;;;;;5115445;28;19911;-81
2023/07/20 12:02:27;;;;;;;;;;;43.00;35.80;;;;;;5115255;28;20006;-81
2023/07/20 12:04:56;;;;;;;;;;;43.20;35.50;;;;;;5115408;28;19915;-82
2023/07/20 12:07:22;;;;;;;;;;;43.40;35.20;;;;;;5116068;28;20357;-82
2023/07/20 12:10:07;;;;;;;;;;;43.40;35.10;;;;;;5115417;28;19956;-82
2023/07/20 12:12:33;;;;;;;;;;;43.30;35.10;;;;;;5115203;28;19904;-84
2023/07/20 12:15:21;;;;;;;;;;;43.50;36.50;;;;;;5096716;28;19904;-83
2023/07/20 12:17:51;;;;;;;;;;;43.30;36.80;;;;;;5113847;28;19956;-83
2023/07/20 12:20:34;;;;;;;;;;;43.30;36.60;;;;;;5096666;28;19994;-82
2023/07/20 12:23:07;;;;;;;;;;;43.10;37.50;;;;;;5114888;28;19908;-82
2023/07/20 12:25:45;;;;;;;;;;;43.20;37.20;;;;;;5115020;28;20014;-83
2023/07/20 12:28:11;;;;;;;;;;;43.30;37.10;;;;;;5115733;28;20292;-82
2023/07/20 12:30:38;;;;;;;;;;;43.10;37.10;;;;;;5096805;28;19904;-82
2023/07/20 12:33:04;;;;;;;;;;;43.30;38.10;;;;;;5114673;28;19994;-83
2023/07/20 12:35:31;;;;;;;;;;;43.00;38.60;;;;;;5114747;28;19904;-82
2023/07/20 12:37:58;;;;;;;;;;;43.10;38.90;;;;;;5115396;28;19964;-81
2023/07/20 12:40:24;;;;;;;;;;;43.20;39.60;;;;;;5114564;28;19904;-82
2023/07/20 12:42:50;;;;;;;;;;;43.30;39.20;;;;;;5114909;28;20403;-82
2023/07/20 12:45:15;;;;;;;;;;;43.30;39.20;;;;;;5114608;28;20044;-82
2023/07/20 12:47:43;;;;;;;;;;;43.40;39.20;;;;;;5114565;28;20271;-82
2023/07/20 12:50:12;;;;;;;;;;;43.50;38.70;;;;;;5114565;28;19904;-82
2023/07/20 12:52:38;;;;;;;;;;;43.50;39.00;;;;;;5096212;28;19913;-82
2023/07/20 12:55:05;;;;;;;;;;;43.60;39.00;;;;;;5114549;28;19904;-81
2023/07/20 12:57:31;;;;;;;;;;;43.60;39.20;;;;;;5114861;28;19904;-81
2023/07/20 12:59:57;;;;;;;;;;;43.50;38.80;;;;;;5114401;28;19926;-82
2023/07/20 13:02:23;;;;;;;;;;;43.40;38.40;;;;;;5114259;28;20434;-82
2023/07/20 13:04:49;;;;;;;;;;;43.40;38.70;;;;;;5114410;28;19970;-82
2023/07/20 13:07:15;;;;;;;;;;;43.40;38.90;;;;;;5114907;28;19907;-81
2023/07/20 13:09:41;;;;;;;;;;;43.40;39.30;;;;;;5114255;28;20271;-81
2023/07/20 13:12:07;;;;;;;;;;;43.30;40.50;;;;;;5114324;28;19908;-82
2023/07/20 13:14:33;;;;;;;;;;;43.10;41.30;;;;;;5114379;28;19903;-82
2023/07/20 13:16:59;;;;;;;;;;;43.10;41.80;;;;;;5095970;28;19903;-83
2023/07/20 13:19:25;;;;;;;;;;;43.20;42.10;;;;;;5114255;28;19908;-82
2023/07/20 13:21:51;;;;;;;;;;;43.20;42.10;;;;;;5114385;28;19912;-80
2023/07/20 13:24:17;;;;;;;;;;;43.20;42.40;;;;;;5114536;28;19904;-82
2023/07/20 13:26:43;;;;;;;;;;;42.90;43.00;;;;;;5114110;28;19908;-82
2023/07/20 13:29:08;;;;;;;;;;;42.90;42.60;;;;;;5114273;28;19990;-81
2023/07/20 13:31:34;;;;;;;;;;;42.50;42.40;;;;;;5095508;28;20294;-82
2023/07/20 13:34:00;;;;;;;;;;;42.70;41.10;;;;;;5114188;28;19904;-81
2023/07/20 13:36:26;;;;;;;;;;;42.70;40.90;;;;;;5114012;28;20010;-81
2023/07/20 13:38:52;;;;;;;;;;;42.80;41.80;;;;;;5114007;28;19910;-81
2023/07/20 13:41:18;;;;;;;;;;;42.90;41.70;;;;;;5114108;28;19914;-81
2023/07/20 13:43:44;;;;;;;;;;;42.90;42.00;;;;;;5114014;28;19957;-83
2023/07/20 13:46:10;;;;;;;;;;;42.90;43.00;;;;;;5114197;28;19903;-80
2023/07/20 13:48:36;;;;;;;;;;;43.00;43.00;;;;;;5113877;28;19904;-82
2023/07/20 13:51:01;;;;;;;;;;;42.90;43.40;;;;;;5113852;28;19982;-82
2023/07/20 13:53:27;;;;;;;;;;;42.70;42.60;;;;;;5114318;28;20395;-83
2023/07/20 13:55:53;;;;;;;;;;;42.60;41.60;;;;;;5114100;28;19963;-82
2023/07/20 13:58:19;;;;;;;;;;;42.50;41.40;;;;;;5113838;28;19908;-82
2023/07/20 14:00:45;;;;;;;;;;;42.40;41.70;;;;;;5113615;28;20147;-81
2023/07/20 14:03:11;;;;;;;;;;;42.30;41.40;;;;;;5113611;28;19907;-82
2023/07/20 14:05:37;;;;;;;;;;;42.10;40.80;;;;;;5114262;28;19912;-82
2023/07/20 14:08:03;;;;;;;;;;;42.10;40.90;;;;;;5113593;28;19903;-82
2023/07/20 14:10:28;;;;;;;;;;;42.10;39.60;;;;;;5114340;28;19903;-81
2023/07/20 14:12:54;;;;;;;;;;;42.10;39.10;;;;;;5113857;28;19910;-81
2023/07/20 14:15:20;;;;;;;;;;;42.30;39.20;;;;;;5113942;28;19942;-82